sensor_id;sensor_type;location;lat;lon;timestamp;P1;durP1;ratioP1;P2;durP2;ratioP2
11921;SDS011;6021;51.182;3.160;2023-07-13T00:00:37;10.13;;;3.27;;
11921;SDS011;6021;51.182;3.160;2023-07-13T00:03:07;12.17;;;3.40;;
11921;SDS011;6021;51.182;3.160;2023-07-13T00:05:36;13.80;;;3.90;;
11921;SDS011;6021;51.182;3.160;2023-07-13T00:08:04;12.07;;;3.70;;
11921;SDS011;6021;51.182;3.160;2023-07-13T00:10:32;9.87;;;3.13;;
11921;SDS011;6021;51.182;3.160;2023-07-13T00:13:01;11.30;;;3.47;;
11921;SDS011;6021;51.182;3.160;2023-07-13T00:15:30;8.67;;;3.30;;
11921;SDS011;6021;51.182;3.160;2023-07-13T00:17:58;9.10;;;3.30;;
11921;SDS011;6021;51.182;3.160;2023-07-13T00:20:27;11.30;;;3.70;;
11921;SDS011;6021;51.182;3.160;2023-07-13T00:22:55;11.90;;;3.67;;
11921;SDS011;6021;51.182;3.160;2023-07-13T00:25:24;8.60;;;3.30;;
11921;SDS011;6021;51.182;3.160;2023-07-13T00:27:54;12.63;;;3.33;;
11921;SDS011;6021;51.182;3.160;2023-07-13T00:30:23;8.57;;;2.83;;
11921;SDS011;6021;51.182;3.160;2023-07-13T00:32:52;9.83;;;3.80;;
11921;SDS011;6021;51.182;3.160;2023-07-13T00:35:20;9.80;;;3.40;;
11921;SDS011;6021;51.182;3.160;2023-07-13T00:37:49;14.53;;;4.03;;
11921;SDS011;6021;51.182;3.160;2023-07-13T00:40:18;10.70;;;3.70;;
11921;SDS011;6021;51.182;3.160;2023-07-13T00:42:46;13.20;;;3.93;;
11921;SDS011;6021;51.182;3.160;2023-07-13T00:47:46;14.67;;;4.03;;
11921;SDS011;6021;51.182;3.160;2023-07-13T00:50:14;12.43;;;4.00;;
11921;SDS011;6021;51.182;3.160;2023-07-13T00:52:46;11.30;;;3.77;;
11921;SDS011;6021;51.182;3.160;2023-07-13T00:55:16;11.77;;;3.73;;
11921;SDS011;6021;51.182;3.160;2023-07-13T00:57:45;11.33;;;4.07;;
11921;SDS011;6021;51.182;3.160;2023-07-13T01:00:14;14.80;;;4.07;;
11921;SDS011;6021;51.182;3.160;2023-07-13T01:02:44;10.50;;;3.70;;
11921;SDS011;6021;51.182;3.160;2023-07-13T01:05:15;10.67;;;3.33;;
11921;SDS011;6021;51.182;3.160;2023-07-13T01:07:45;9.47;;;3.80;;
11921;SDS011;6021;51.182;3.160;2023-07-13T01:10:15;10.63;;;3.90;;
11921;SDS011;6021;51.182;3.160;2023-07-13T01:12:44;9.20;;;3.70;;
11921;SDS011;6021;51.182;3.160;2023-07-13T01:18:00;11.43;;;3.87;;
11921;SDS011;6021;51.182;3.160;2023-07-13T01:20:29;11.53;;;3.93;;
11921;SDS011;6021;51.182;3.160;2023-07-13T01:23:00;12.97;;;4.23;;
11921;SDS011;6021;51.182;3.160;2023-07-13T01:25:29;10.00;;;3.63;;
11921;SDS011;6021;51.182;3.160;2023-07-13T01:27:57;11.63;;;3.90;;
11921;SDS011;6021;51.182;3.160;2023-07-13T01:30:25;10.90;;;4.10;;
11921;SDS011;6021;51.182;3.160;2023-07-13T01:32:54;13.37;;;4.53;;
11921;SDS011;6021;51.182;3.160;2023-07-13T01:35:22;11.30;;;4.30;;
11921;SDS011;6021;51.182;3.160;2023-07-13T01:37:51;15.38;;;4.92;;
11921;SDS011;6021;51.182;3.160;2023-07-13T01:40:20;10.33;;;4.53;;
11921;SDS011;6021;51.182;3.160;2023-07-13T01:42:49;15.83;;;4.90;;
11921;SDS011;6021;51.182;3.160;2023-07-13T01:45:17;12.97;;;4.57;;
11921;SDS011;6021;51.182;3.160;2023-07-13T01:47:46;10.90;;;4.17;;
11921;SDS011;6021;51.182;3.160;2023-07-13T01:50:14;11.70;;;4.23;;
11921;SDS011;6021;51.182;3.160;2023-07-13T01:52:42;14.67;;;4.53;;
11921;SDS011;6021;51.182;3.160;2023-07-13T01:55:11;13.37;;;4.93;;
11921;SDS011;6021;51.182;3.160;2023-07-13T01:57:40;16.83;;;5.70;;
11921;SDS011;6021;51.182;3.160;2023-07-13T02:00:09;16.83;;;5.70;;
11921;SDS011;6021;51.182;3.160;2023-07-13T02:02:38;16.97;;;5.20;;
11921;SDS011;6021;51.182;3.160;2023-07-13T02:05:07;14.33;;;5.10;;
11921;SDS011;6021;51.182;3.160;2023-07-13T02:07:36;14.63;;;4.87;;
11921;SDS011;6021;51.182;3.160;2023-07-13T02:10:05;12.77;;;4.37;;
11921;SDS011;6021;51.182;3.160;2023-07-13T02:12:35;13.47;;;5.00;;
11921;SDS011;6021;51.182;3.160;2023-07-13T02:15:04;18.57;;;5.37;;
11921;SDS011;6021;51.182;3.160;2023-07-13T02:17:33;14.13;;;5.33;;
11921;SDS011;6021;51.182;3.160;2023-07-13T02:20:02;15.43;;;4.97;;
11921;SDS011;6021;51.182;3.160;2023-07-13T02:22:32;16.70;;;4.90;;
11921;SDS011;6021;51.182;3.160;2023-07-13T02:25:00;15.80;;;5.00;;
11921;SDS011;6021;51.182;3.160;2023-07-13T02:27:29;15.10;;;4.83;;
11921;SDS011;6021;51.182;3.160;2023-07-13T02:29:57;16.47;;;5.63;;
11921;SDS011;6021;51.182;3.160;2023-07-13T02:32:25;14.70;;;5.27;;
11921;SDS011;6021;51.182;3.160;2023-07-13T02:34:54;13.53;;;4.80;;
11921;SDS011;6021;51.182;3.160;2023-07-13T02:37:22;15.60;;;5.70;;
11921;SDS011;6021;51.182;3.160;2023-07-13T02:39:50;17.97;;;5.63;;
11921;SDS011;6021;51.182;3.160;2023-07-13T02:42:19;17.20;;;5.50;;
11921;SDS011;6021;51.182;3.160;2023-07-13T02:44:47;15.23;;;5.50;;
11921;SDS011;6021;51.182;3.160;2023-07-13T02:47:17;18.20;;;5.70;;
11921;SDS011;6021;51.182;3.160;2023-07-13T02:49:45;17.43;;;5.63;;
11921;SDS011;6021;51.182;3.160;2023-07-13T02:52:13;14.37;;;5.50;;
11921;SDS011;6021;51.182;3.160;2023-07-13T02:54:42;15.80;;;5.50;;
11921;SDS011;6021;51.182;3.160;2023-07-13T02:57:10;11.87;;;4.63;;
11921;SDS011;6021;51.182;3.160;2023-07-13T02:59:38;19.00;;;6.70;;
11921;SDS011;6021;51.182;3.160;2023-07-13T03:02:07;18.50;;;5.83;;
11921;SDS011;6021;51.182;3.160;2023-07-13T03:04:36;13.27;;;5.47;;
11921;SDS011;6021;51.182;3.160;2023-07-13T03:07:05;13.57;;;5.77;;
11921;SDS011;6021;51.182;3.160;2023-07-13T03:09:34;17.03;;;6.50;;
11921;SDS011;6021;51.182;3.160;2023-07-13T03:12:03;19.33;;;6.90;;
11921;SDS011;6021;51.182;3.160;2023-07-13T03:14:32;18.60;;;7.47;;
11921;SDS011;6021;51.182;3.160;2023-07-13T03:17:00;19.37;;;7.17;;
11921;SDS011;6021;51.182;3.160;2023-07-13T03:19:29;16.83;;;6.83;;
11921;SDS011;6021;51.182;3.160;2023-07-13T03:21:57;16.83;;;7.27;;
11921;SDS011;6021;51.182;3.160;2023-07-13T03:24:25;18.40;;;7.27;;
11921;SDS011;6021;51.182;3.160;2023-07-13T03:26:54;18.97;;;7.60;;
11921;SDS011;6021;51.182;3.160;2023-07-13T03:29:22;15.63;;;7.00;;
11921;SDS011;6021;51.182;3.160;2023-07-13T03:31:50;17.40;;;7.13;;
11921;SDS011;6021;51.182;3.160;2023-07-13T03:34:18;15.07;;;6.70;;
11921;SDS011;6021;51.182;3.160;2023-07-13T03:36:47;18.47;;;6.70;;
11921;SDS011;6021;51.182;3.160;2023-07-13T03:39:15;18.20;;;6.70;;
11921;SDS011;6021;51.182;3.160;2023-07-13T03:41:43;15.27;;;6.80;;
11921;SDS011;6021;51.182;3.160;2023-07-13T03:44:12;19.10;;;7.00;;
11921;SDS011;6021;51.182;3.160;2023-07-13T03:46:41;17.47;;;6.77;;
11921;SDS011;6021;51.182;3.160;2023-07-13T03:49:09;20.77;;;6.87;;
11921;SDS011;6021;51.182;3.160;2023-07-13T03:51:38;17.73;;;6.07;;
11921;SDS011;6021;51.182;3.160;2023-07-13T03:54:06;18.07;;;6.50;;
11921;SDS011;6021;51.182;3.160;2023-07-13T03:56:34;18.33;;;6.80;;
11921;SDS011;6021;51.182;3.160;2023-07-13T03:59:03;19.33;;;6.63;;
11921;SDS011;6021;51.182;3.160;2023-07-13T04:01:31;18.47;;;6.50;;
11921;SDS011;6021;51.182;3.160;2023-07-13T04:04:00;16.20;;;6.27;;
11921;SDS011;6021;51.182;3.160;2023-07-13T04:06:29;17.83;;;6.20;;
11921;SDS011;6021;51.182;3.160;2023-07-13T04:08:59;16.63;;;6.30;;
11921;SDS011;6021;51.182;3.160;2023-07-13T04:11:31;15.10;;;6.20;;
11921;SDS011;6021;51.182;3.160;2023-07-13T04:14:00;16.70;;;6.30;;
11921;SDS011;6021;51.182;3.160;2023-07-13T04:16:28;14.53;;;5.63;;
11921;SDS011;6021;51.182;3.160;2023-07-13T04:18:57;17.83;;;6.57;;
11921;SDS011;6021;51.182;3.160;2023-07-13T04:21:29;14.40;;;5.73;;
11921;SDS011;6021;51.182;3.160;2023-07-13T04:23:58;16.27;;;6.27;;
11921;SDS011;6021;51.182;3.160;2023-07-13T04:26:26;16.97;;;6.03;;
11921;SDS011;6021;51.182;3.160;2023-07-13T04:28:55;18.77;;;6.43;;
11921;SDS011;6021;51.182;3.160;2023-07-13T04:31:25;15.87;;;6.10;;
11921;SDS011;6021;51.182;3.160;2023-07-13T04:33:53;9.73;;;5.10;;
11921;SDS011;6021;51.182;3.160;2023-07-13T04:36:22;20.93;;;6.53;;
11921;SDS011;6021;51.182;3.160;2023-07-13T04:38:52;12.70;;;5.40;;
11921;SDS011;6021;51.182;3.160;2023-07-13T04:41:21;14.77;;;5.77;;
11921;SDS011;6021;51.182;3.160;2023-07-13T04:43:49;16.23;;;6.03;;
11921;SDS011;6021;51.182;3.160;2023-07-13T04:46:17;17.83;;;6.00;;
11921;SDS011;6021;51.182;3.160;2023-07-13T04:48:46;17.10;;;6.53;;
11921;SDS011;6021;51.182;3.160;2023-07-13T04:51:17;15.93;;;6.20;;
11921;SDS011;6021;51.182;3.160;2023-07-13T04:53:46;19.77;;;6.10;;
11921;SDS011;6021;51.182;3.160;2023-07-13T04:56:14;17.87;;;6.30;;
11921;SDS011;6021;51.182;3.160;2023-07-13T04:58:42;16.73;;;6.20;;
11921;SDS011;6021;51.182;3.160;2023-07-13T05:01:11;15.77;;;5.83;;
11921;SDS011;6021;51.182;3.160;2023-07-13T05:03:40;21.03;;;7.00;;
11921;SDS011;6021;51.182;3.160;2023-07-13T05:06:08;17.30;;;5.90;;
11921;SDS011;6021;51.182;3.160;2023-07-13T05:08:37;15.77;;;5.40;;
11921;SDS011;6021;51.182;3.160;2023-07-13T05:11:05;14.03;;;5.53;;
11921;SDS011;6021;51.182;3.160;2023-07-13T05:13:34;14.30;;;5.63;;
11921;SDS011;6021;51.182;3.160;2023-07-13T05:16:03;12.50;;;5.50;;
11921;SDS011;6021;51.182;3.160;2023-07-13T05:18:34;17.00;;;5.93;;
11921;SDS011;6021;51.182;3.160;2023-07-13T05:21:04;17.00;;;5.80;;
11921;SDS011;6021;51.182;3.160;2023-07-13T05:23:35;14.47;;;5.47;;
11921;SDS011;6021;51.182;3.160;2023-07-13T05:26:04;13.77;;;5.93;;
11921;SDS011;6021;51.182;3.160;2023-07-13T05:28:32;16.93;;;5.60;;
11921;SDS011;6021;51.182;3.160;2023-07-13T05:31:01;14.57;;;5.30;;
11921;SDS011;6021;51.182;3.160;2023-07-13T05:33:29;15.73;;;6.33;;
11921;SDS011;6021;51.182;3.160;2023-07-13T05:35:58;14.87;;;6.10;;
11921;SDS011;6021;51.182;3.160;2023-07-13T05:38:27;15.80;;;5.87;;
11921;SDS011;6021;51.182;3.160;2023-07-13T05:40:57;14.07;;;5.57;;
11921;SDS011;6021;51.182;3.160;2023-07-13T05:43:25;14.10;;;5.40;;
11921;SDS011;6021;51.182;3.160;2023-07-13T05:45:54;16.63;;;5.70;;
11921;SDS011;6021;51.182;3.160;2023-07-13T05:48:23;14.97;;;5.70;;
11921;SDS011;6021;51.182;3.160;2023-07-13T05:50:51;12.87;;;5.00;;
11921;SDS011;6021;51.182;3.160;2023-07-13T05:53:20;13.57;;;5.37;;
11921;SDS011;6021;51.182;3.160;2023-07-13T05:55:48;15.40;;;5.30;;
11921;SDS011;6021;51.182;3.160;2023-07-13T05:58:17;16.70;;;6.00;;
11921;SDS011;6021;51.182;3.160;2023-07-13T06:00:46;13.73;;;5.53;;
11921;SDS011;6021;51.182;3.160;2023-07-13T06:03:15;13.67;;;5.30;;
11921;SDS011;6021;51.182;3.160;2023-07-13T06:05:43;13.07;;;5.30;;
11921;SDS011;6021;51.182;3.160;2023-07-13T06:08:12;14.50;;;5.07;;
11921;SDS011;6021;51.182;3.160;2023-07-13T06:10:41;12.13;;;4.97;;
11921;SDS011;6021;51.182;3.160;2023-07-13T06:13:09;15.33;;;5.53;;
11921;SDS011;6021;51.182;3.160;2023-07-13T06:15:38;13.03;;;5.37;;
11921;SDS011;6021;51.182;3.160;2023-07-13T06:18:06;14.50;;;5.30;;
11921;SDS011;6021;51.182;3.160;2023-07-13T06:20:34;15.57;;;5.13;;
11921;SDS011;6021;51.182;3.160;2023-07-13T06:23:03;13.30;;;4.73;;
11921;SDS011;6021;51.182;3.160;2023-07-13T06:25:31;11.50;;;4.80;;
11921;SDS011;6021;51.182;3.160;2023-07-13T06:28:00;14.27;;;4.87;;
11921;SDS011;6021;51.182;3.160;2023-07-13T06:30:29;15.40;;;4.97;;
11921;SDS011;6021;51.182;3.160;2023-07-13T06:32:58;18.20;;;5.47;;
11921;SDS011;6021;51.182;3.160;2023-07-13T06:35:26;12.67;;;4.60;;
11921;SDS011;6021;51.182;3.160;2023-07-13T06:37:55;13.23;;;5.07;;
11921;SDS011;6021;51.182;3.160;2023-07-13T06:40:23;14.43;;;4.87;;
11921;SDS011;6021;51.182;3.160;2023-07-13T06:42:51;17.23;;;4.57;;
11921;SDS011;6021;51.182;3.160;2023-07-13T06:45:20;15.03;;;5.13;;
11921;SDS011;6021;51.182;3.160;2023-07-13T06:47:48;13.07;;;4.80;;
11921;SDS011;6021;51.182;3.160;2023-07-13T06:50:17;11.37;;;4.40;;
11921;SDS011;6021;51.182;3.160;2023-07-13T06:52:45;14.07;;;4.83;;
11921;SDS011;6021;51.182;3.160;2023-07-13T06:55:14;12.90;;;4.87;;
11921;SDS011;6021;51.182;3.160;2023-07-13T06:57:42;15.43;;;4.37;;
11921;SDS011;6021;51.182;3.160;2023-07-13T07:00:11;14.13;;;4.57;;
11921;SDS011;6021;51.182;3.160;2023-07-13T07:02:40;9.13;;;3.77;;
11921;SDS011;6021;51.182;3.160;2023-07-13T07:05:08;11.60;;;4.10;;
11921;SDS011;6021;51.182;3.160;2023-07-13T07:07:36;10.33;;;3.80;;
11921;SDS011;6021;51.182;3.160;2023-07-13T07:10:05;12.57;;;4.43;;
11921;SDS011;6021;51.182;3.160;2023-07-13T07:12:34;10.83;;;3.87;;
11921;SDS011;6021;51.182;3.160;2023-07-13T07:15:02;12.03;;;4.80;;
11921;SDS011;6021;51.182;3.160;2023-07-13T07:17:31;10.70;;;4.10;;
11921;SDS011;6021;51.182;3.160;2023-07-13T07:19:59;7.70;;;3.80;;
11921;SDS011;6021;51.182;3.160;2023-07-13T07:22:28;9.30;;;3.63;;
11921;SDS011;6021;51.182;3.160;2023-07-13T07:24:57;8.67;;;3.60;;
11921;SDS011;6021;51.182;3.160;2023-07-13T07:27:25;8.03;;;3.30;;
11921;SDS011;6021;51.182;3.160;2023-07-13T07:29:53;7.80;;;3.73;;
11921;SDS011;6021;51.182;3.160;2023-07-13T07:32:24;5.77;;;3.23;;
11921;SDS011;6021;51.182;3.160;2023-07-13T07:34:53;9.77;;;3.73;;
11921;SDS011;6021;51.182;3.160;2023-07-13T07:37:22;9.63;;;3.60;;
11921;SDS011;6021;51.182;3.160;2023-07-13T07:39:51;8.17;;;3.50;;
11921;SDS011;6021;51.182;3.160;2023-07-13T07:42:19;8.27;;;3.67;;
11921;SDS011;6021;51.182;3.160;2023-07-13T07:44:48;7.97;;;3.63;;
11921;SDS011;6021;51.182;3.160;2023-07-13T07:47:16;11.07;;;3.97;;
11921;SDS011;6021;51.182;3.160;2023-07-13T07:49:44;9.60;;;3.73;;
11921;SDS011;6021;51.182;3.160;2023-07-13T07:52:13;7.17;;;3.63;;
11921;SDS011;6021;51.182;3.160;2023-07-13T07:54:41;8.67;;;3.93;;
11921;SDS011;6021;51.182;3.160;2023-07-13T07:57:09;8.20;;;3.57;;
11921;SDS011;6021;51.182;3.160;2023-07-13T07:59:38;10.00;;;4.37;;
11921;SDS011;6021;51.182;3.160;2023-07-13T08:02:08;7.63;;;3.73;;
11921;SDS011;6021;51.182;3.160;2023-07-13T08:04:38;8.17;;;3.83;;
11921;SDS011;6021;51.182;3.160;2023-07-13T08:07:07;10.17;;;4.27;;
11921;SDS011;6021;51.182;3.160;2023-07-13T08:09:36;9.20;;;3.87;;
11921;SDS011;6021;51.182;3.160;2023-07-13T08:12:04;7.20;;;3.90;;
11921;SDS011;6021;51.182;3.160;2023-07-13T08:14:33;7.60;;;3.67;;
11921;SDS011;6021;51.182;3.160;2023-07-13T08:17:01;6.60;;;3.20;;
11921;SDS011;6021;51.182;3.160;2023-07-13T08:19:30;4.83;;;3.27;;
11921;SDS011;6021;51.182;3.160;2023-07-13T08:22:00;6.03;;;3.73;;
11921;SDS011;6021;51.182;3.160;2023-07-13T08:24:28;7.40;;;4.47;;
11921;SDS011;6021;51.182;3.160;2023-07-13T08:26:57;7.90;;;4.60;;
11921;SDS011;6021;51.182;3.160;2023-07-13T08:29:25;8.33;;;4.40;;
11921;SDS011;6021;51.182;3.160;2023-07-13T08:31:53;7.33;;;4.30;;
11921;SDS011;6021;51.182;3.160;2023-07-13T08:34:22;8.97;;;4.30;;
11921;SDS011;6021;51.182;3.160;2023-07-13T08:36:50;6.97;;;4.17;;
11921;SDS011;6021;51.182;3.160;2023-07-13T08:39:19;9.70;;;4.60;;
11921;SDS011;6021;51.182;3.160;2023-07-13T08:41:47;9.77;;;4.73;;
11921;SDS011;6021;51.182;3.160;2023-07-13T08:44:20;8.53;;;4.97;;
11921;SDS011;6021;51.182;3.160;2023-07-13T08:46:50;6.97;;;4.10;;
11921;SDS011;6021;51.182;3.160;2023-07-13T08:49:22;6.90;;;4.30;;
11921;SDS011;6021;51.182;3.160;2023-07-13T08:51:52;5.90;;;4.10;;
11921;SDS011;6021;51.182;3.160;2023-07-13T08:54:32;5.63;;;4.10;;
11921;SDS011;6021;51.182;3.160;2023-07-13T08:57:05;6.93;;;4.00;;
11921;SDS011;6021;51.182;3.160;2023-07-13T08:59:40;6.70;;;4.53;;
11921;SDS011;6021;51.182;3.160;2023-07-13T09:02:14;7.63;;;4.93;;
11921;SDS011;6021;51.182;3.160;2023-07-13T09:04:48;10.20;;;5.70;;
11921;SDS011;6021;51.182;3.160;2023-07-13T09:15:41;8.77;;;6.03;;
11921;SDS011;6021;51.182;3.160;2023-07-13T09:18:13;9.50;;;6.23;;
11921;SDS011;6021;51.182;3.160;2023-07-13T09:20:50;8.20;;;4.97;;
11921;SDS011;6021;51.182;3.160;2023-07-13T09:23:21;9.40;;;5.00;;
11921;SDS011;6021;51.182;3.160;2023-07-13T09:25:51;11.00;;;5.37;;
11921;SDS011;6021;51.182;3.160;2023-07-13T09:28:26;10.60;;;5.60;;
11921;SDS011;6021;51.182;3.160;2023-07-13T09:31:04;9.87;;;5.70;;
11921;SDS011;6021;51.182;3.160;2023-07-13T09:33:30;9.37;;;5.33;;
11921;SDS011;6021;51.182;3.160;2023-07-13T09:35:59;9.40;;;5.30;;
11921;SDS011;6021;51.182;3.160;2023-07-13T09:38:29;9.83;;;5.57;;
11921;SDS011;6021;51.182;3.160;2023-07-13T09:40:59;11.30;;;5.23;;
11921;SDS011;6021;51.182;3.160;2023-07-13T09:44:00;7.17;;;4.07;;
11921;SDS011;6021;51.182;3.160;2023-07-13T09:46:30;7.73;;;4.13;;
11921;SDS011;6021;51.182;3.160;2023-07-13T09:48:59;7.77;;;4.37;;
11921;SDS011;6021;51.182;3.160;2023-07-13T09:51:32;19.23;;;4.83;;
11921;SDS011;6021;51.182;3.160;2023-07-13T09:54:00;14.63;;;5.67;;
11921;SDS011;6021;51.182;3.160;2023-07-13T09:56:29;16.67;;;5.40;;
11921;SDS011;6021;51.182;3.160;2023-07-13T09:58:58;9.07;;;4.97;;
11921;SDS011;6021;51.182;3.160;2023-07-13T10:01:34;11.33;;;4.60;;
11921;SDS011;6021;51.182;3.160;2023-07-13T10:04:10;8.30;;;4.30;;
11921;SDS011;6021;51.182;3.160;2023-07-13T10:06:35;9.03;;;4.33;;
11921;SDS011;6021;51.182;3.160;2023-07-13T10:09:03;7.83;;;4.13;;
11921;SDS011;6021;51.182;3.160;2023-07-13T10:11:35;10.07;;;4.30;;
11921;SDS011;6021;51.182;3.160;2023-07-13T10:14:18;5.73;;;3.70;;
11921;SDS011;6021;51.182;3.160;2023-07-13T10:16:49;4.57;;;3.30;;
11921;SDS011;6021;51.182;3.160;2023-07-13T10:19:29;4.90;;;2.90;;
11921;SDS011;6021;51.182;3.160;2023-07-13T10:22:09;5.43;;;3.10;;
11921;SDS011;6021;51.182;3.160;2023-07-13T10:24:50;5.23;;;3.50;;
11921;SDS011;6021;51.182;3.160;2023-07-13T10:27:20;4.40;;;3.20;;
11921;SDS011;6021;51.182;3.160;2023-07-13T10:32:43;4.67;;;3.40;;
11921;SDS011;6021;51.182;3.160;2023-07-13T10:35:14;4.97;;;3.30;;
11921;SDS011;6021;51.182;3.160;2023-07-13T10:40:29;7.17;;;4.33;;
11921;SDS011;6021;51.182;3.160;2023-07-13T10:43:22;5.67;;;4.40;;
11921;SDS011;6021;51.182;3.160;2023-07-13T10:45:45;8.07;;;4.73;;
11921;SDS011;6021;51.182;3.160;2023-07-13T10:48:18;7.07;;;4.40;;
11921;SDS011;6021;51.182;3.160;2023-07-13T10:50:49;7.73;;;4.77;;
11921;SDS011;6021;51.182;3.160;2023-07-13T10:53:20;8.93;;;4.90;;
11921;SDS011;6021;51.182;3.160;2023-07-13T10:58:23;6.73;;;5.00;;
11921;SDS011;6021;51.182;3.160;2023-07-13T11:03:28;9.57;;;5.23;;
11921;SDS011;6021;51.182;3.160;2023-07-13T11:06:05;7.57;;;4.60;;
11921;SDS011;6021;51.182;3.160;2023-07-13T11:13:59;9.07;;;5.27;;
11921;SDS011;6021;51.182;3.160;2023-07-13T11:16:34;8.53;;;5.00;;
11921;SDS011;6021;51.182;3.160;2023-07-13T11:22:10;9.77;;;5.23;;
11921;SDS011;6021;51.182;3.160;2023-07-13T11:27:33;11.70;;;6.73;;
11921;SDS011;6021;51.182;3.160;2023-07-13T11:30:14;8.17;;;6.20;;
11921;SDS011;6021;51.182;3.160;2023-07-13T11:33:16;10.43;;;6.83;;
11921;SDS011;6021;51.182;3.160;2023-07-13T11:35:36;7.50;;;6.40;;
11921;SDS011;6021;51.182;3.160;2023-07-13T11:38:12;11.17;;;6.80;;
11921;SDS011;6021;51.182;3.160;2023-07-13T11:40:45;9.40;;;6.03;;
11921;SDS011;6021;51.182;3.160;2023-07-13T11:43:15;7.90;;;5.20;;
11921;SDS011;6021;51.182;3.160;2023-07-13T11:45:44;10.10;;;5.43;;
11921;SDS011;6021;51.182;3.160;2023-07-13T11:53:37;7.53;;;4.00;;
11921;SDS011;6021;51.182;3.160;2023-07-13T11:56:08;6.77;;;3.90;;
11921;SDS011;6021;51.182;3.160;2023-07-13T11:58:36;7.27;;;4.20;;
11921;SDS011;6021;51.182;3.160;2023-07-13T12:01:05;5.47;;;3.60;;
11921;SDS011;6021;51.182;3.160;2023-07-13T12:03:34;8.13;;;3.90;;
11921;SDS011;6021;51.182;3.160;2023-07-13T12:06:03;6.73;;;3.90;;
11921;SDS011;6021;51.182;3.160;2023-07-13T12:08:39;5.93;;;3.70;;
11921;SDS011;6021;51.182;3.160;2023-07-13T12:11:17;6.07;;;3.60;;
11921;SDS011;6021;51.182;3.160;2023-07-13T12:13:46;10.53;;;4.77;;
11921;SDS011;6021;51.182;3.160;2023-07-13T12:16:37;8.73;;;4.10;;
11921;SDS011;6021;51.182;3.160;2023-07-13T12:18:47;7.80;;;3.87;;
11921;SDS011;6021;51.182;3.160;2023-07-13T12:21:17;7.30;;;3.87;;
11921;SDS011;6021;51.182;3.160;2023-07-13T12:23:47;8.60;;;3.70;;
11921;SDS011;6021;51.182;3.160;2023-07-13T12:26:17;7.27;;;3.37;;
11921;SDS011;6021;51.182;3.160;2023-07-13T12:28:52;6.17;;;3.50;;
11921;SDS011;6021;51.182;3.160;2023-07-13T12:31:41;7.37;;;3.60;;
11921;SDS011;6021;51.182;3.160;2023-07-13T12:36:46;7.63;;;3.47;;
11921;SDS011;6021;51.182;3.160;2023-07-13T12:39:17;6.50;;;3.53;;
11921;SDS011;6021;51.182;3.160;2023-07-13T12:41:47;9.70;;;3.60;;
11921;SDS011;6021;51.182;3.160;2023-07-13T12:44:24;11.10;;;3.43;;
11921;SDS011;6021;51.182;3.160;2023-07-13T12:47:05;9.73;;;3.43;;
11921;SDS011;6021;51.182;3.160;2023-07-13T12:49:40;8.90;;;3.30;;
11921;SDS011;6021;51.182;3.160;2023-07-13T12:52:21;6.00;;;3.17;;
11921;SDS011;6021;51.182;3.160;2023-07-13T12:54:53;7.80;;;3.20;;
11921;SDS011;6021;51.182;3.160;2023-07-13T12:57:25;8.43;;;3.63;;
11921;SDS011;6021;51.182;3.160;2023-07-13T12:59:53;7.47;;;3.13;;
11921;SDS011;6021;51.182;3.160;2023-07-13T13:02:27;7.30;;;3.33;;
11921;SDS011;6021;51.182;3.160;2023-07-13T13:05:00;9.90;;;3.27;;
11921;SDS011;6021;51.182;3.160;2023-07-13T13:07:31;5.33;;;2.90;;
11921;SDS011;6021;51.182;3.160;2023-07-13T13:10:00;5.23;;;2.93;;
11921;SDS011;6021;51.182;3.160;2023-07-13T13:12:32;5.37;;;3.00;;
11921;SDS011;6021;51.182;3.160;2023-07-13T13:15:00;5.93;;;3.00;;
11921;SDS011;6021;51.182;3.160;2023-07-13T13:17:29;4.27;;;2.47;;
11921;SDS011;6021;51.182;3.160;2023-07-13T13:20:04;5.87;;;3.00;;
11921;SDS011;6021;51.182;3.160;2023-07-13T13:22:29;5.77;;;2.60;;
11921;SDS011;6021;51.182;3.160;2023-07-13T13:24:58;7.37;;;2.43;;
11921;SDS011;6021;51.182;3.160;2023-07-13T13:27:26;3.80;;;2.60;;
11921;SDS011;6021;51.182;3.160;2023-07-13T13:29:55;3.43;;;2.40;;
11921;SDS011;6021;51.182;3.160;2023-07-13T13:32:25;7.17;;;2.77;;
11921;SDS011;6021;51.182;3.160;2023-07-13T13:34:54;4.03;;;2.60;;
11921;SDS011;6021;51.182;3.160;2023-07-13T13:37:22;7.57;;;2.53;;
11921;SDS011;6021;51.182;3.160;2023-07-13T13:39:52;3.70;;;2.20;;
11921;SDS011;6021;51.182;3.160;2023-07-13T13:42:21;4.23;;;2.10;;
11921;SDS011;6021;51.182;3.160;2023-07-13T13:44:51;4.73;;;2.20;;
11921;SDS011;6021;51.182;3.160;2023-07-13T13:47:39;2.93;;;2.00;;
11921;SDS011;6021;51.182;3.160;2023-07-13T13:50:01;5.17;;;1.90;;
11921;SDS011;6021;51.182;3.160;2023-07-13T13:52:30;4.13;;;2.20;;
11921;SDS011;6021;51.182;3.160;2023-07-13T13:54:59;3.13;;;2.00;;
11921;SDS011;6021;51.182;3.160;2023-07-13T13:57:28;4.43;;;2.07;;
11921;SDS011;6021;51.182;3.160;2023-07-13T13:59:57;2.33;;;1.70;;
11921;SDS011;6021;51.182;3.160;2023-07-13T14:02:27;4.27;;;1.93;;
11921;SDS011;6021;51.182;3.160;2023-07-13T14:05:02;3.73;;;2.30;;
11921;SDS011;6021;51.182;3.160;2023-07-13T14:07:29;2.93;;;1.83;;
11921;SDS011;6021;51.182;3.160;2023-07-13T14:09:58;4.53;;;2.03;;
11921;SDS011;6021;51.182;3.160;2023-07-13T14:12:27;3.53;;;1.90;;
11921;SDS011;6021;51.182;3.160;2023-07-13T14:14:56;3.90;;;1.83;;
11921;SDS011;6021;51.182;3.160;2023-07-13T14:17:25;5.03;;;2.00;;
11921;SDS011;6021;51.182;3.160;2023-07-13T14:19:55;3.07;;;2.03;;
11921;SDS011;6021;51.182;3.160;2023-07-13T14:22:25;3.53;;;1.83;;
11921;SDS011;6021;51.182;3.160;2023-07-13T14:24:54;4.70;;;2.00;;
11921;SDS011;6021;51.182;3.160;2023-07-13T14:27:25;5.13;;;2.10;;
11921;SDS011;6021;51.182;3.160;2023-07-13T14:29:53;5.50;;;2.20;;
11921;SDS011;6021;51.182;3.160;2023-07-13T14:32:23;3.63;;;2.20;;
11921;SDS011;6021;51.182;3.160;2023-07-13T14:34:52;4.57;;;2.20;;
11921;SDS011;6021;51.182;3.160;2023-07-13T14:37:21;7.23;;;2.43;;
11921;SDS011;6021;51.182;3.160;2023-07-13T14:39:49;5.43;;;2.20;;
11921;SDS011;6021;51.182;3.160;2023-07-13T14:42:19;6.23;;;2.23;;
11921;SDS011;6021;51.182;3.160;2023-07-13T14:44:48;5.10;;;2.40;;
11921;SDS011;6021;51.182;3.160;2023-07-13T14:47:16;6.53;;;2.47;;
11921;SDS011;6021;51.182;3.160;2023-07-13T14:49:46;4.47;;;2.30;;
11921;SDS011;6021;51.182;3.160;2023-07-13T14:52:19;4.80;;;2.20;;
11921;SDS011;6021;51.182;3.160;2023-07-13T14:54:48;6.07;;;2.30;;
11921;SDS011;6021;51.182;3.160;2023-07-13T14:57:17;5.63;;;2.10;;
11921;SDS011;6021;51.182;3.160;2023-07-13T14:59:47;5.53;;;2.30;;
11921;SDS011;6021;51.182;3.160;2023-07-13T15:02:27;4.17;;;2.03;;
11921;SDS011;6021;51.182;3.160;2023-07-13T15:04:56;3.80;;;2.10;;
11921;SDS011;6021;51.182;3.160;2023-07-13T15:07:25;4.60;;;1.90;;
11921;SDS011;6021;51.182;3.160;2023-07-13T15:09:54;4.47;;;2.00;;
11921;SDS011;6021;51.182;3.160;2023-07-13T15:12:22;7.27;;;2.20;;
11921;SDS011;6021;51.182;3.160;2023-07-13T15:14:50;3.07;;;1.60;;
11921;SDS011;6021;51.182;3.160;2023-07-13T15:17:24;3.43;;;1.97;;
11921;SDS011;6021;51.182;3.160;2023-07-13T15:19:57;6.33;;;2.00;;
11921;SDS011;6021;51.182;3.160;2023-07-13T15:22:26;4.27;;;1.80;;
11921;SDS011;6021;51.182;3.160;2023-07-13T15:24:54;3.90;;;1.93;;
11921;SDS011;6021;51.182;3.160;2023-07-13T15:27:22;4.00;;;1.83;;
11921;SDS011;6021;51.182;3.160;2023-07-13T15:29:51;5.40;;;2.20;;
11921;SDS011;6021;51.182;3.160;2023-07-13T15:32:19;5.53;;;1.93;;
11921;SDS011;6021;51.182;3.160;2023-07-13T15:34:48;5.60;;;2.03;;
11921;SDS011;6021;51.182;3.160;2023-07-13T15:37:16;7.93;;;2.27;;
11921;SDS011;6021;51.182;3.160;2023-07-13T15:39:46;3.37;;;1.80;;
11921;SDS011;6021;51.182;3.160;2023-07-13T15:42:16;5.93;;;2.10;;
11921;SDS011;6021;51.182;3.160;2023-07-13T15:44:46;4.33;;;1.80;;
11921;SDS011;6021;51.182;3.160;2023-07-13T15:47:15;4.73;;;1.90;;
11921;SDS011;6021;51.182;3.160;2023-07-13T15:49:44;5.03;;;1.80;;
11921;SDS011;6021;51.182;3.160;2023-07-13T15:52:21;3.83;;;1.90;;
11921;SDS011;6021;51.182;3.160;2023-07-13T15:54:46;4.10;;;1.87;;